Thunder radar more information blitzortung!


Radar de pluja more information rain snow radar


Visita la nostra xarxa de llocs de meteo:

Template documentation
and downloads

And another site



No particular awareness of the weather is required.    There are no Weather-warnings

Pagina Historial Weather Underground text

Diari Resum Juny 16, 2017 Unitats:  Imperial    Mètric   Tant
« Previous Dia
SegĂźent Dia »
Diari Setmana Mensual Anual Personalitzada
  Maxima: Minima: Media:
Temperatura: TemperatureC °F 22.9 °F 30.3 °F
Punt de rosada: DewpointC °F 8.6 °F 14.5 °F
Humitat: Humidity % 28 % 39 %
Wind Speed: WindSpeedKMH mph 0.0 mph 8 mph
RĂ fegues de vent: WindSpeedGustKMH mph - -
Vent:- - SSW
Pression baro: PressurehPa in 1015.8 in -
Precipitacions: 0.0 in    
Historical Graphs
 
 
Dades de taula per Juny 16, 2017
Temps Temperatura Punt de rosada Pression baro Vent Wind Speed RĂ fegues de vent Humitat Rainfall Rate (Hourly)
TemperatureC °F DewpointC °F PressurehPa in Calm     Humidity % HourlyPrecipMM in
00:03 26.1 °F 8.6 °F 1015.8 in WNW 3.7 mph 3.7 mph 33 % 0.0 in
04:15 27.9 °F 13.8 °F 1017.8 in Calm   3.2 mph 42 % 0.0 in
04:25 28.1 °F 14.0 °F 1017.8 in NE 3.2 mph 4.8 mph 42 % 0.0 in
04:35 28.3 °F 13.8 °F 1017.8 in NE 1.6 mph 4.8 mph 41 % 0.0 in
04:45 28.9 °F 14.3 °F 1017.8 in NE 3.2 mph 6.4 mph 41 % 0.0 in
04:55 29.1 °F 14.1 °F 1017.8 in NE 3.2 mph 6.4 mph 40 % 0.0 in
05:05 29.4 °F 14.4 °F 1017.8 in ENE 3.2 mph 6.4 mph 40 % 0.0 in
10:15 29.5 °F 14.1 °F 1017.8 in ENE 7.4 mph 7.4 mph 39 % 0.0 in
10:20 29.5 °F 13.7 °F 1017.8 in ENE 7.4 mph 7.6 mph 38 % 0.0 in
10:25 29.6 °F 13.8 °F 1017.8 in NNE 9.3 mph 9.3 mph 38 % 0.0 in
10:30 29.9 °F 14.1 °F 1017.8 in ENE 7.6 mph 7.6 mph 38 % 0.0 in
10:35 30.0 °F 14.1 °F 1017.8 in NNE 7.4 mph 7.4 mph 38 % 0.0 in
10:40 30.2 °F 14.3 °F 1017.8 in NE 11.1 mph 11.1 mph 38 % 0.0 in
10:45 30.5 °F 14.6 °F 1017.8 in East 5.0 mph 5.0 mph 38 % 0.0 in
10:50 30.6 °F 14.7 °F 1017.8 in East 5.8 mph   38 % 0.0 in
10:55 30.8 °F 14.4 °F 1017.8 in SSW 5.6 mph 5.6 mph 37 % 0.0 in
11:00 31.2 °F 14.3 °F 1017.8 in West 5.6 mph 5.6 mph 36 % 0.0 in
11:05 31.9 °F 15.0 °F 1017.8 in ESE 8.7 mph 8.7 mph 36 % 0.0 in
11:10 31.6 °F 14.7 °F 1017.8 in SW 4.7 mph 4.7 mph 36 % 0.0 in
11:15 31.8 °F 14.9 °F 1017.8 in NW 5.6 mph 5.6 mph 36 % 0.0 in
11:20 31.5 °F 14.6 °F 1017.8 in NE 7.4 mph 7.4 mph 36 % 0.0 in
11:25 32.2 °F 15.2 °F 1017.8 in WNW 3.9 mph 3.9 mph 36 % 0.0 in
11:30 32.6 °F 15.2 °F 1017.8 in SSW 5.6 mph 5.6 mph 35 % 0.0 in
11:35 32.2 °F 14.8 °F 1017.8 in SW 9.3 mph 9.3 mph 35 % 0.0 in
11:40 32.5 °F 15.1 °F 1017.8 in SSW 3.7 mph 3.7 mph 35 % 0.0 in
11:45 32.8 °F 14.9 °F 1017.8 in West 5.6 mph 5.6 mph 34 % 0.0 in
11:50 33.4 °F 15.4 °F 1017.8 in South 5.0 mph 5.0 mph 34 % 0.0 in
11:55 33.8 °F 15.3 °F 1017.8 in ESE 5.6 mph 5.6 mph 33 % 0.0 in
12:00 33.0 °F 14.6 °F 1017.8 in WSW 11.1 mph 11.1 mph 33 % 0.0 in
12:05 33.0 °F 14.6 °F 1017.8 in ESE 7.4 mph 7.4 mph 33 % 0.0 in
12:10 32.7 °F 14.3 °F 1017.8 in SW 6.1 mph 6.1 mph 33 % 0.0 in
12:15 33.3 °F 14.4 °F 1017.8 in SSE 9.3 mph 9.3 mph 32 % 0.0 in
12:20 33.1 °F 14.2 °F 1017.8 in NW 7.4 mph 7.4 mph 32 % 0.0 in
12:25 33.0 °F 14.1 °F 1017.8 in ENE 7.4 mph 7.4 mph 32 % 0.0 in
12:30 33.3 °F 14.4 °F 1017.8 in North 5.6 mph 5.6 mph 32 % 0.0 in
12:35 33.0 °F 15.1 °F 1017.8 in South 7.4 mph 7.4 mph 34 % 0.0 in
12:40 33.1 °F 15.1 °F 1017.8 in ESE 9.3 mph 9.3 mph 34 % 0.0 in
12:45 32.7 °F 15.2 °F 1016.8 in ESE 13.7 mph 13.7 mph 35 % 0.0 in
12:50 32.1 °F 14.7 °F 1016.8 in ENE 11.1 mph 11.1 mph 35 % 0.0 in
12:55 32.6 °F 15.6 °F 1016.8 in NNE 10.0 mph 10.0 mph 36 % 0.0 in
13:00 33.3 °F 15.3 °F 1016.8 in WSW 14.8 mph 14.8 mph 34 % 0.0 in
13:05 34.1 °F 15.1 °F 1016.8 in South 5.6 mph 5.6 mph 32 % 0.0 in
13:10 34.4 °F 15.3 °F 1016.8 in SSW 5.6 mph 5.6 mph 32 % 0.0 in
13:15 34.5 °F 15.4 °F 1016.8 in SSW 9.3 mph 9.3 mph 32 % 0.0 in
13:20 34.9 °F 15.3 °F 1016.8 in SW 13.0 mph 13.0 mph 31 % 0.0 in
13:25 34.8 °F 14.7 °F 1016.8 in SSW 5.6 mph 5.6 mph 30 % 0.0 in
13:30 34.9 °F 14.8 °F 1016.8 in SSW 9.3 mph 9.3 mph 30 % 0.0 in
13:35 35.6 °F 14.8 °F 1016.8 in SE 3.7 mph 3.7 mph 29 % 0.0 in
13:40 34.8 °F 14.2 °F 1016.8 in South 18.5 mph 18.5 mph 29 % 0.0 in
13:45 34.9 °F 14.8 °F 1016.8 in SW 9.3 mph 9.3 mph 30 % 0.0 in
13:50 35.2 °F 14.5 °F 1016.8 in WSW 9.5 mph 9.5 mph 29 % 0.0 in
13:55 34.7 °F 14.1 °F 1016.8 in SSW 16.7 mph 16.7 mph 29 % 0.0 in
14:00 34.9 °F 14.2 °F 1016.8 in SSE 9.3 mph 9.3 mph 29 % 0.0 in
14:05 35.4 °F 14.1 °F 1016.8 in SW 9.3 mph 9.3 mph 28 % 0.0 in
14:10 35.1 °F 13.8 °F 1016.8 in West 9.3 mph 9.3 mph 28 % 0.0 in
14:15 35.0 °F 13.8 °F 1016.8 in SSW 13.0 mph 13.0 mph 28 % 0.0 in
14:20 34.8 °F 14.2 °F 1016.8 in SW 14.8 mph 14.8 mph 29 % 0.0 in
14:25 34.2 °F 13.6 °F 1016.8 in SW 14.8 mph 14.8 mph 29 % 0.0 in
14:30 34.7 °F 14.1 °F 1016.8 in SW 11.1 mph 11.1 mph 29 % 0.0 in
14:35 34.5 °F 13.9 °F 1016.8 in WSW 11.1 mph 11.1 mph 29 % 0.0 in
14:40 34.4 °F 13.8 °F 1016.8 in SSW 17.2 mph 17.2 mph 29 % 0.0 in
14:45 34.6 °F 13.9 °F 1016.8 in WSW 13.0 mph 13.0 mph 29 % 0.0 in
14:50 34.3 °F 13.7 °F 1016.8 in SSW 4.7 mph 4.7 mph 29 % 0.0 in
14:55 34.4 °F 13.8 °F 1016.8 in SW 13.0 mph 13.0 mph 29 % 0.0 in
15:00 34.6 °F 13.9 °F 1015.8 in WSW 11.1 mph 11.1 mph 29 % 0.0 in
15:05 34.7 °F 14.1 °F 1015.8 in SSW 11.1 mph 11.1 mph 29 % 0.0 in
15:10 34.6 °F 13.9 °F 1015.8 in SW 14.8 mph 14.8 mph 29 % 0.0 in
15:15 34.3 °F 14.2 °F 1016.8 in West 7.4 mph 7.4 mph 30 % 0.0 in
15:20 34.4 °F 13.8 °F 1016.8 in SSW 15.8 mph 15.8 mph 29 % 0.0 in
15:25 34.3 °F 14.2 °F 1016.8 in WSW 14.0 mph 14.0 mph 30 % 0.0 in
15:30 34.4 °F 14.3 °F 1015.8 in SW 9.3 mph 9.3 mph 30 % 0.0 in
15:35 34.5 °F 14.4 °F 1015.8 in WSW 14.8 mph 14.8 mph 30 % 0.0 in
15:37 34.4 °F 14.3 °F 1015.8 in NNW 9.3 mph 9.3 mph 30 % 0.0 in
15:42 34.8 °F 14.7 °F 1015.8 in SSW 9.5 mph 9.5 mph 30 % 0.0 in
15:47 34.5 °F 14.4 °F 1015.8 in SW 16.7 mph 16.7 mph 30 % 0.0 in
15:52 34.3 °F 14.2 °F 1015.8 in South 14.0 mph 14.0 mph 30 % 0.0 in
15:57 34.2 °F 14.2 °F 1015.8 in South 11.1 mph 11.1 mph 30 % 0.0 in
15:59 34.4 °F 14.3 °F 1015.8 in SSW 9.3 mph 9.3 mph 30 % 0.0 in
16:04 34.4 °F 14.3 °F 1015.8 in SW 12.6 mph 12.6 mph 30 % 0.0 in
16:09 34.2 °F 14.2 °F 1015.8 in WSW 9.3 mph 9.3 mph 30 % 0.0 in
16:14 34.4 °F 14.3 °F 1015.8 in SW 11.1 mph 11.1 mph 30 % 0.0 in
16:19 34.6 °F 14.5 °F 1015.8 in SSW 11.1 mph 11.1 mph 30 % 0.0 in
16:24 34.7 °F 14.6 °F 1015.8 in SW 9.3 mph 9.3 mph 30 % 0.0 in
16:29 34.7 °F 14.6 °F 1015.8 in SW 16.7 mph 16.7 mph 30 % 0.0 in
16:34 34.3 °F 14.2 °F 1015.8 in SW 14.8 mph 14.8 mph 30 % 0.0 in
16:39 34.1 °F 14.1 °F 1015.8 in SW 14.0 mph 14.0 mph 30 % 0.0 in
16:44 34.4 °F 14.3 °F 1015.8 in ESE 11.1 mph 11.1 mph 30 % 0.0 in
16:49 34.1 °F 14.1 °F 1015.8 in South 13.0 mph 13.0 mph 30 % 0.0 in
16:54 34.0 °F 14.0 °F 1015.8 in South 10.3 mph 10.3 mph 30 % 0.0 in
16:59 34.0 °F 14.0 °F 1015.8 in SSE 11.4 mph 11.4 mph 30 % 0.0 in
17:04 33.6 °F 13.6 °F 1016.8 in SSW 16.7 mph 16.7 mph 30 % 0.0 in
17:09 33.8 °F 13.8 °F 1016.8 in SSE 13.0 mph 13.0 mph 30 % 0.0 in
17:14 33.8 °F 14.3 °F 1016.8 in SSW 14.8 mph 14.8 mph 31 % 0.0 in
17:19 33.8 °F 14.3 °F 1015.8 in WSW 14.8 mph 14.8 mph 31 % 0.0 in
17:24 33.8 °F 14.3 °F 1015.8 in SW 13.0 mph 13.0 mph 31 % 0.0 in
17:29 33.6 °F 14.1 °F 1015.8 in SW 13.0 mph 13.0 mph 31 % 0.0 in
17:34 33.8 °F 14.3 °F 1015.8 in SW 14.0 mph 14.0 mph 31 % 0.0 in
17:39 33.5 °F 14.6 °F 1015.8 in SSE 11.1 mph 11.1 mph 32 % 0.0 in
17:44 33.5 °F 14.6 °F 1015.8 in SW 14.8 mph 14.8 mph 32 % 0.0 in
17:49 33.6 °F 14.6 °F 1015.8 in South 13.0 mph 13.0 mph 32 % 0.0 in
17:54 33.4 °F 14.4 °F 1015.8 in SSW 13.0 mph 13.0 mph 32 % 0.0 in
17:59 32.9 °F 14.0 °F 1015.8 in SW 16.9 mph 16.9 mph 32 % 0.0 in
18:04 33.0 °F 14.1 °F 1015.8 in WSW 5.6 mph 6.4 mph 32 % 0.0 in
18:09 32.9 °F 14.5 °F 1015.8 in SE 5.6 mph 5.6 mph 33 % 0.0 in
18:14 32.8 °F 14.4 °F 1015.8 in SW 11.1 mph 11.1 mph 33 % 0.0 in
18:19 32.7 °F 14.3 °F 1015.8 in SSW 5.6 mph 5.6 mph 33 % 0.0 in
18:24 32.9 °F 14.5 °F 1015.8 in South 7.4 mph 7.4 mph 33 % 0.0 in
18:29 32.7 °F 14.3 °F 1015.8 in WSW 9.3 mph 9.3 mph 33 % 0.0 in
18:34 32.5 °F 14.2 °F 1015.8 in SW 9.3 mph 9.3 mph 33 % 0.0 in
18:35 32.5 °F 14.2 °F 1015.8 in WSW 9.3 mph 9.3 mph 33 % 0.0 in
18:40 32.5 °F 14.6 °F 1015.8 in SW 9.3 mph 9.3 mph 34 % 0.0 in
18:45 32.3 °F 14.4 °F 1015.8 in SW 13.0 mph 13.0 mph 34 % 0.0 in
18:50 32.2 °F 14.3 °F 1015.8 in SSE 11.1 mph 11.1 mph 34 % 0.0 in
18:55 31.9 °F 14.6 °F 1015.8 in WSW 9.3 mph 9.3 mph 35 % 0.0 in
18:57 31.6 °F 14.3 °F 1015.8 in South 13.0 mph 13.0 mph 35 % 0.0 in
19:02 31.6 °F 14.3 °F 1015.8 in West 8.7 mph 8.7 mph 35 % 0.0 in
19:07 31.6 °F 14.3 °F 1015.8 in SW 11.1 mph 11.1 mph 35 % 0.0 in
19:12 31.4 °F 14.1 °F 1015.8 in SW 10.3 mph 10.3 mph 35 % 0.0 in
19:15 24.8 °F 15.7 °F 1017.8 in SW 3.2 mph 3.2 mph 57 % 0.0 in
19:17 31.2 °F 14.3 °F 1015.8 in SSW 14.8 mph 14.8 mph 36 % 0.0 in
19:22 31.1 °F 14.3 °F 1015.8 in WSW 17.5 mph 17.5 mph 36 % 0.0 in
19:25 24.7 °F 15.6 °F 1017.8 in SW 1.6 mph 3.2 mph 57 % 0.0 in
19:27 30.9 °F 14.5 °F 1015.8 in WSW 13.0 mph 13.0 mph 37 % 0.0 in
19:32 30.6 °F 14.3 °F 1015.8 in SSW 16.7 mph 16.7 mph 37 % 0.0 in
19:35 24.6 °F 15.8 °F 1017.8 in WSW 1.6 mph 3.2 mph 58 % 0.0 in
19:37 30.5 °F 14.6 °F 1015.8 in SW 11.1 mph 11.1 mph 38 % 0.0 in
19:42 30.5 °F 14.6 °F 1015.8 in South 7.4 mph 7.4 mph 38 % 0.0 in
19:45 24.5 °F 15.7 °F 1017.8 in SW 3.2 mph 3.2 mph 58 % 0.0 in
19:47 30.3 °F 14.4 °F 1015.8 in SW 14.8 mph 14.8 mph 38 % 0.0 in
19:52 30.1 °F 14.2 °F 1015.8 in South 9.3 mph 9.3 mph 38 % 0.0 in
19:57 30.0 °F 14.6 °F 1015.8 in South 11.1 mph 11.1 mph 39 % 0.0 in
20:02 30.0 °F 14.6 °F 1015.8 in SW 6.4 mph 6.4 mph 39 % 0.0 in
20:05 24.5 °F 15.7 °F 1017.8 in WSW 1.6 mph 3.2 mph 58 % 0.0 in
20:07 29.9 °F 14.4 °F 1015.8 in SSW 7.4 mph 7.4 mph 39 % 0.0 in
20:12 29.6 °F 14.2 °F 1015.8 in SSW 9.3 mph 9.3 mph 39 % 0.0 in
20:15 24.5 °F 15.9 °F 1017.8 in WSW 3.2 mph 3.2 mph 59 % 0.0 in
20:17 29.5 °F 14.1 °F 1015.8 in SSW 7.4 mph 7.4 mph 39 % 0.0 in
20:22 29.4 °F 14.0 °F 1015.8 in WSW 9.3 mph 9.3 mph 39 % 0.0 in
20:25 24.3 °F 15.8 °F 1017.8 in WSW 1.6 mph 6.4 mph 59 % 0.0 in
20:27 29.2 °F 14.2 °F 1015.8 in South 14.8 mph 14.8 mph 40 % 0.0 in
20:32 28.9 °F 14.3 °F 1015.8 in West 5.6 mph 7.6 mph 41 % 0.0 in
20:35 24.2 °F 15.9 °F 1017.8 in WSW 1.6 mph 4.8 mph 60 % 0.0 in
20:37 28.8 °F 14.2 °F 1015.8 in SW 5.6 mph 5.6 mph 41 % 0.0 in
20:42 28.7 °F 14.2 °F 1015.8 in SW 9.3 mph 9.3 mph 41 % 0.0 in
20:45 24.1 °F 15.8 °F 1017.8 in WSW 1.6 mph 6.4 mph 60 % 0.0 in
20:47 28.5 °F 14.3 °F 1015.8 in WSW 9.3 mph 9.3 mph 42 % 0.0 in
20:52 28.4 °F 14.2 °F 1015.8 in SSW 7.4 mph 7.4 mph 42 % 0.0 in
20:55 24.1 °F 15.8 °F 1017.8 in WSW 1.6 mph 3.2 mph 60 % 0.0 in
20:57 28.1 °F 14.3 °F 1015.8 in SW 5.6 mph 5.6 mph 43 % 0.0 in
21:02 28.1 °F 14.3 °F 1015.8 in SSW 9.7 mph 9.7 mph 43 % 0.0 in
21:05 23.9 °F 15.9 °F 1017.8 in WSW 1.6 mph 4.8 mph 61 % 0.0 in
21:07 27.9 °F 14.5 °F 1015.8 in SW 4.2 mph 4.2 mph 44 % 0.0 in
21:12 27.8 °F 14.4 °F 1015.8 in SW 9.3 mph 9.3 mph 44 % 0.0 in
21:15 23.8 °F 16.1 °F 1017.8 in WSW 1.6 mph 4.8 mph 62 % 0.0 in
21:17 27.6 °F 14.6 °F 1015.8 in South 14.8 mph 14.8 mph 45 % 0.0 in
21:22 27.4 °F 14.4 °F 1015.8 in SSE 5.6 mph 5.6 mph 45 % 0.0 in
21:25 23.7 °F 16.2 °F 1017.8 in WSW 1.6 mph 3.2 mph 63 % 0.0 in
21:27 27.3 °F 14.3 °F 1015.8 in SSW 4.2 mph 4.2 mph 45 % 0.0 in
21:32 27.2 °F 14.2 °F 1015.8 in WSW 5.6 mph 5.6 mph 45 % 0.0 in
21:35 23.6 °F 16.2 °F 1017.8 in SW 1.6 mph 4.8 mph 63 % 0.0 in
21:37 27.0 °F 14.4 °F 1015.8 in SSW 7.4 mph 7.4 mph 46 % 0.0 in
21:42 26.9 °F 14.6 °F 1015.8 in SW 5.6 mph 5.6 mph 47 % 0.0 in
21:45 23.5 °F 16.1 °F 1017.8 in WSW 1.6 mph 4.8 mph 63 % 0.0 in
21:47 26.8 °F 14.6 °F 1015.8 in SSE 5.6 mph 5.6 mph 47 % 0.0 in
21:52 26.7 °F 14.8 °F 1015.8 in SW 5.6 mph 5.6 mph 48 % 0.0 in
21:55 23.4 °F 15.9 °F 1016.8 in WSW 1.6 mph 3.2 mph 63 % 0.0 in
21:57 26.6 °F 15.0 °F 1015.8 in SW 2.6 mph 2.6 mph 49 % 0.0 in
22:02 26.4 °F 14.8 °F 1015.8 in WSW 5.6 mph 5.6 mph 49 % 0.0 in
22:05 23.3 °F 15.8 °F 1016.8 in WSW 3.2 mph 3.2 mph 63 % 0.0 in
22:07 26.3 °F 14.7 °F 1015.8 in SSW 5.6 mph 5.6 mph 49 % 0.0 in
22:12 26.2 °F 14.9 °F 1015.8 in Calm     50 % 0.0 in
22:15 23.0 °F 15.8 °F 1016.8 in Calm   3.2 mph 64 % 0.0 in
22:17 26.1 °F 14.9 °F 1015.8 in SSW 7.4 mph 7.4 mph 50 % 0.0 in
22:22 26.1 °F 15.2 °F 1015.8 in SW 3.9 mph 3.9 mph 51 % 0.0 in
22:25 22.9 °F 15.7 °F 1016.8 in SW 1.6 mph 1.6 mph 64 % 0.0 in
22:27 26.0 °F 15.1 °F 1015.8 in SW 1.9 mph   51 % 0.0 in
22:32 26.0 °F 15.1 °F 1016.8 in WSW 5.6 mph 5.6 mph 51 % 0.0 in
22:35 22.9 °F 15.7 °F 1016.8 in WSW 1.6 mph 3.2 mph 64 % 0.0 in
22:37 25.9 °F 15.0 °F 1016.8 in SSW 3.7 mph 3.7 mph 51 % 0.0 in
22:42 25.8 °F 15.2 °F 1016.8 in SW 3.7 mph 3.7 mph 52 % 0.0 in
22:45 25.8 °F 15.2 °F 1016.8 in Calm     52 % 0.0 in
22:48 25.8 °F 15.2 °F 1016.8 in SW 3.7 mph 3.7 mph 52 % 0.0 in
22:50 25.7 °F 15.1 °F 1016.8 in SW 7.4 mph 7.4 mph 52 % 0.0 in
22:55 25.6 °F 15.0 °F 1016.8 in SW 3.9 mph 3.9 mph 52 % 0.0 in
23:00 25.6 °F 15.3 °F 1017.8 in SW 1.9 mph   53 % 0.0 in
23:05 25.5 °F 15.2 °F 1017.8 in WSW 1.9 mph   53 % 0.0 in
23:10 25.5 °F 15.5 °F 1017.8 in SSE 4.2 mph   54 % 0.0 in
23:15 25.4 °F 15.4 °F 1017.8 in South 1.9 mph   54 % 0.0 in
23:20 25.4 °F 15.4 °F 1017.8 in West 1.4 mph   54 % 0.0 in
23:25 25.4 °F 15.4 °F 1017.8 in WSW 2.3 mph 2.3 mph 54 % 0.0 in
23:30 25.3 °F 15.3 °F 1017.8 in SW 3.9 mph 3.9 mph 54 % 0.0 in
23:35 25.3 °F 15.3 °F 1017.8 in SW 3.9 mph 3.9 mph 54 % 0.0 in
23:40 25.2 °F 15.5 °F 1017.8 in SW 3.9 mph   55 % 0.0 in
23:45 25.2 °F 15.5 °F 1017.8 in WSW 1.9 mph 1.9 mph 55 % 0.0 in
23:50 25.1 °F 15.1 °F 1017.8 in SW 5.6 mph 5.6 mph 54 % 0.0 in
23:55 25.0 °F 15.3 °F 1017.8 in SW 3.7 mph 3.7 mph 55 % 0.0 in
Meteo Sesrovires
Elogis d' Weather Underground - 2 mb

Guio original per  Jim McMurry - jmcmurry@mwt.net Adaptat per a la plantilla per  Wim van der Kuil - Leuven-Template.eu

Trobareu la nostra informacio del temps tambe a:

Weather Underground

AWEKAS